sensor_id;sensor_type;location;lat;lon;timestamp;pressure;altitude;pressure_sealevel;temperature;humidity
6565;BME280;3316;44.118;27.258;2023-04-20T00:00:57;100542.97;;;12.39;100.00
6565;BME280;3316;44.118;27.258;2023-04-20T00:03:22;100530.63;;;12.41;100.00
6565;BME280;3316;44.118;27.258;2023-04-20T00:05:48;100532.50;;;12.36;100.00
6565;BME280;3316;44.118;27.258;2023-04-20T00:08:15;100529.00;;;12.33;100.00
6565;BME280;3316;44.118;27.258;2023-04-20T00:10:42;100518.41;;;12.36;100.00
6565;BME280;3316;44.118;27.258;2023-04-20T00:13:08;100509.56;;;12.40;100.00
6565;BME280;3316;44.118;27.258;2023-04-20T00:15:33;100521.75;;;12.45;100.00
6565;BME280;3316;44.118;27.258;2023-04-20T00:18:00;100522.63;;;12.46;100.00
6565;BME280;3316;44.118;27.258;2023-04-20T00:20:26;100503.59;;;12.30;100.00
6565;BME280;3316;44.118;27.258;2023-04-20T00:22:52;100518.31;;;12.42;100.00
6565;BME280;3316;44.118;27.258;2023-04-20T00:25:19;100515.66;;;12.42;100.00
6565;BME280;3316;44.118;27.258;2023-04-20T00:27:44;100516.50;;;12.42;100.00
6565;BME280;3316;44.118;27.258;2023-04-20T00:30:10;100510.38;;;12.42;100.00
6565;BME280;3316;44.118;27.258;2023-04-20T00:32:36;100476.63;;;12.15;100.00
6565;BME280;3316;44.118;27.258;2023-04-20T00:35:01;100515.84;;;12.31;100.00
6565;BME280;3316;44.118;27.258;2023-04-20T00:37:27;100518.38;;;12.37;100.00
6565;BME280;3316;44.118;27.258;2023-04-20T00:39:53;100461.81;;;12.08;100.00
6565;BME280;3316;44.118;27.258;2023-04-20T00:42:19;100522.66;;;12.43;100.00
6565;BME280;3316;44.118;27.258;2023-04-20T00:44:45;100520.03;;;12.43;100.00
6565;BME280;3316;44.118;27.258;2023-04-20T00:47:10;100520.97;;;12.39;100.00
6565;BME280;3316;44.118;27.258;2023-04-20T00:49:36;100523.50;;;12.45;100.00
6565;BME280;3316;44.118;27.258;2023-04-20T00:52:01;100524.19;;;12.54;100.00
6565;BME280;3316;44.118;27.258;2023-04-20T00:54:28;100510.44;;;12.39;100.00
6565;BME280;3316;44.118;27.258;2023-04-20T00:56:55;100527.78;;;12.50;100.00
6565;BME280;3316;44.118;27.258;2023-04-20T00:59:22;100515.66;;;12.42;100.00
6565;BME280;3316;44.118;27.258;2023-04-20T01:01:48;100509.47;;;12.43;100.00
6565;BME280;3316;44.118;27.258;2023-04-20T01:04:14;100521.72;;;12.47;100.00
6565;BME280;3316;44.118;27.258;2023-04-20T01:06:40;100523.63;;;12.39;100.00
6565;BME280;3316;44.118;27.258;2023-04-20T01:09:06;100510.63;;;12.30;100.00
6565;BME280;3316;44.118;27.258;2023-04-20T01:11:31;100508.06;;;12.25;100.00
6565;BME280;3316;44.118;27.258;2023-04-20T01:13:57;100496.72;;;12.22;100.00
6565;BME280;3316;44.118;27.258;2023-04-20T01:16:22;100504.47;;;12.29;100.00
6565;BME280;3316;44.118;27.258;2023-04-20T01:18:49;100513.16;;;12.36;100.00
6565;BME280;3316;44.118;27.258;2023-04-20T01:21:17;100498.31;;;12.29;100.00
6565;BME280;3316;44.118;27.258;2023-04-20T01:23:43;100499.19;;;12.29;100.00
6565;BME280;3316;44.118;27.258;2023-04-20T01:26:11;100503.59;;;12.29;100.00
6565;BME280;3316;44.118;27.258;2023-04-20T01:28:37;100485.38;;;12.15;100.00
6565;BME280;3316;44.118;27.258;2023-04-20T01:31:04;100497.72;;;12.15;100.00
6565;BME280;3316;44.118;27.258;2023-04-20T01:33:29;100494.91;;;12.24;100.00
6565;BME280;3316;44.118;27.258;2023-04-20T01:35:55;100467.97;;;12.08;100.00
6565;BME280;3316;44.118;27.258;2023-04-20T01:38:22;100485.28;;;12.21;100.00
6565;BME280;3316;44.118;27.258;2023-04-20T01:40:48;100503.56;;;12.32;100.00
6565;BME280;3316;44.118;27.258;2023-04-20T01:43:15;100484.44;;;12.21;100.00
6565;BME280;3316;44.118;27.258;2023-04-20T01:45:41;100490.53;;;12.23;100.00
6565;BME280;3316;44.118;27.258;2023-04-20T01:48:06;100481.91;;;12.15;100.00
6565;BME280;3316;44.118;27.258;2023-04-20T01:50:32;100486.06;;;12.26;100.00
6565;BME280;3316;44.118;27.258;2023-04-20T01:52:57;100495.63;;;12.32;100.00
6565;BME280;3316;44.118;27.258;2023-04-20T01:55:23;100499.28;;;12.26;100.00
6565;BME280;3316;44.118;27.258;2023-04-20T01:57:48;100490.44;;;12.27;100.00
6565;BME280;3316;44.118;27.258;2023-04-20T02:00:14;100444.16;;;12.13;100.00
6565;BME280;3316;44.118;27.258;2023-04-20T02:02:40;100474.50;;;12.33;100.00
6565;BME280;3316;44.118;27.258;2023-04-20T02:05:06;100477.22;;;12.29;100.00
6565;BME280;3316;44.118;27.258;2023-04-20T02:07:32;100486.06;;;12.26;100.00
6565;BME280;3316;44.118;27.258;2023-04-20T02:09:57;100472.94;;;12.23;100.00
6565;BME280;3316;44.118;27.258;2023-04-20T02:12:23;100474.59;;;12.27;100.00
6565;BME280;3316;44.118;27.258;2023-04-20T02:14:48;100469.34;;;12.27;100.00
6565;BME280;3316;44.118;27.258;2023-04-20T02:17:14;100470.00;;;12.37;100.00
6565;BME280;3316;44.118;27.258;2023-04-20T02:19:39;100469.41;;;12.24;100.00
6565;BME280;3316;44.118;27.258;2023-04-20T02:22:04;100449.41;;;12.11;100.00
6565;BME280;3316;44.118;27.258;2023-04-20T02:24:30;100472.13;;;12.20;100.00
6565;BME280;3316;44.118;27.258;2023-04-20T02:26:56;100482.88;;;12.11;100.00
6565;BME280;3316;44.118;27.258;2023-04-20T02:29:21;100477.72;;;12.03;100.00
6565;BME280;3316;44.118;27.258;2023-04-20T02:31:47;100462.03;;;11.96;100.00
6565;BME280;3316;44.118;27.258;2023-04-20T02:34:12;100468.03;;;12.05;100.00
6565;BME280;3316;44.118;27.258;2023-04-20T02:36:38;100453.94;;;12.06;100.00
6565;BME280;3316;44.118;27.258;2023-04-20T02:39:03;100480.06;;;12.18;100.00
6565;BME280;3316;44.118;27.258;2023-04-20T02:41:29;100475.47;;;12.28;100.00
6565;BME280;3316;44.118;27.258;2023-04-20T02:43:55;100473.72;;;12.27;100.00
6565;BME280;3316;44.118;27.258;2023-04-20T02:46:20;100477.97;;;12.35;100.00
6565;BME280;3316;44.118;27.258;2023-04-20T02:48:46;100465.69;;;12.34;100.00
6565;BME280;3316;44.118;27.258;2023-04-20T02:51:11;100478.78;;;12.39;100.00
6565;BME280;3316;44.118;27.258;2023-04-20T02:53:37;100481.28;;;12.45;100.00
6565;BME280;3316;44.118;27.258;2023-04-20T02:56:02;100462.09;;;12.38;100.00
6565;BME280;3316;44.118;27.258;2023-04-20T02:58:28;100483.88;;;12.48;100.00
6565;BME280;3316;44.118;27.258;2023-04-20T03:00:59;100476.97;;;12.41;100.00
6565;BME280;3316;44.118;27.258;2023-04-20T03:03:26;100473.53;;;12.37;100.00
6565;BME280;3316;44.118;27.258;2023-04-20T03:05:52;100480.50;;;12.41;100.00
6565;BME280;3316;44.118;27.258;2023-04-20T03:08:17;100481.44;;;12.37;100.00
6565;BME280;3316;44.118;27.258;2023-04-20T03:10:43;100457.19;;;12.20;100.00
6565;BME280;3316;44.118;27.258;2023-04-20T03:13:08;100491.25;;;12.32;100.00
6565;BME280;3316;44.118;27.258;2023-04-20T03:15:34;100483.25;;;12.35;100.00
6565;BME280;3316;44.118;27.258;2023-04-20T03:17:59;100484.13;;;12.36;100.00
6565;BME280;3316;44.118;27.258;2023-04-20T03:20:25;100486.09;;;12.25;100.00
6565;BME280;3316;44.118;27.258;2023-04-20T03:22:51;100482.69;;;12.20;100.00
6565;BME280;3316;44.118;27.258;2023-04-20T03:25:16;100469.59;;;12.14;100.00
6565;BME280;3316;44.118;27.258;2023-04-20T03:27:41;100485.38;;;12.15;100.00
6565;BME280;3316;44.118;27.258;2023-04-20T03:30:07;100488.22;;;12.06;100.00
6565;BME280;3316;44.118;27.258;2023-04-20T03:32:33;100484.78;;;12.03;100.00
6565;BME280;3316;44.118;27.258;2023-04-20T03:34:59;100471.50;;;12.06;100.00
6565;BME280;3316;44.118;27.258;2023-04-20T03:37:24;100476.72;;;12.10;100.00
6565;BME280;3316;44.118;27.258;2023-04-20T03:39:50;100467.97;;;12.08;100.00
6565;BME280;3316;44.118;27.258;2023-04-20T03:42:15;100454.41;;;11.81;100.00
6565;BME280;3316;44.118;27.258;2023-04-20T03:44:40;100484.16;;;11.89;100.00
6565;BME280;3316;44.118;27.258;2023-04-20T03:47:06;100475.47;;;11.82;100.00
6565;BME280;3316;44.118;27.258;2023-04-20T03:49:31;100458.84;;;11.79;100.00
6565;BME280;3316;44.118;27.258;2023-04-20T03:51:57;100433.66;;;11.61;100.00
6565;BME280;3316;44.118;27.258;2023-04-20T03:54:22;100451.22;;;11.62;100.00
6565;BME280;3316;44.118;27.258;2023-04-20T03:56:48;100454.09;;;11.48;100.00
6565;BME280;3316;44.118;27.258;2023-04-20T03:59:14;100459.25;;;11.54;100.00
6565;BME280;3316;44.118;27.258;2023-04-20T04:01:39;100453.03;;;11.57;100.00
6565;BME280;3316;44.118;27.258;2023-04-20T04:04:06;100473.22;;;11.59;100.00
6565;BME280;3316;44.118;27.258;2023-04-20T04:06:31;100478.47;;;11.59;100.00
6565;BME280;3316;44.118;27.258;2023-04-20T04:08:57;100482.84;;;11.60;100.00
6565;BME280;3316;44.118;27.258;2023-04-20T04:11:22;100477.66;;;11.56;100.00
6565;BME280;3316;44.118;27.258;2023-04-20T04:13:49;100480.84;;;11.76;100.00
6565;BME280;3316;44.118;27.258;2023-04-20T04:16:15;100468.41;;;11.84;100.00
6565;BME280;3316;44.118;27.258;2023-04-20T04:18:44;100466.00;;;11.71;100.00
6565;BME280;3316;44.118;27.258;2023-04-20T04:21:09;100431.38;;;11.40;100.00
6565;BME280;3316;44.118;27.258;2023-04-20T04:23:35;100460.88;;;11.61;100.00
6565;BME280;3316;44.118;27.258;2023-04-20T04:26:02;100470.44;;;11.70;100.00
6565;BME280;3316;44.118;27.258;2023-04-20T04:28:29;100468.50;;;11.78;100.00
6565;BME280;3316;44.118;27.258;2023-04-20T04:30:55;100463.34;;;11.74;100.00
6565;BME280;3316;44.118;27.258;2023-04-20T04:33:21;100464.91;;;11.84;100.00
6565;BME280;3316;44.118;27.258;2023-04-20T04:35:47;100472.94;;;11.78;100.00
6565;BME280;3316;44.118;27.258;2023-04-20T04:38:13;100478.88;;;11.89;100.00
6565;BME280;3316;44.118;27.258;2023-04-20T04:40:39;100471.03;;;11.86;100.00
6565;BME280;3316;44.118;27.258;2023-04-20T04:43:07;100458.72;;;11.85;100.00
6565;BME280;3316;44.118;27.258;2023-04-20T04:45:37;100472.72;;;11.90;100.00
6565;BME280;3316;44.118;27.258;2023-04-20T04:48:04;100473.38;;;12.01;100.00
6565;BME280;3316;44.118;27.258;2023-04-20T04:50:30;100460.31;;;11.95;100.00
6565;BME280;3316;44.118;27.258;2023-04-20T04:52:55;100479.53;;;12.00;100.00
6565;BME280;3316;44.118;27.258;2023-04-20T04:55:21;100467.22;;;12.00;100.00
6565;BME280;3316;44.118;27.258;2023-04-20T04:57:46;100463.78;;;11.97;100.00
6565;BME280;3316;44.118;27.258;2023-04-20T05:00:13;100441.88;;;11.92;100.00
6565;BME280;3316;44.118;27.258;2023-04-20T05:02:42;100482.88;;;12.11;100.00
6565;BME280;3316;44.118;27.258;2023-04-20T05:05:07;100473.28;;;12.07;100.00
6565;BME280;3316;44.118;27.258;2023-04-20T05:07:33;100485.91;;;11.88;100.00
6565;BME280;3316;44.118;27.258;2023-04-20T05:09:59;100457.84;;;11.86;100.00
6565;BME280;3316;44.118;27.258;2023-04-20T05:12:24;100473.41;;;11.98;100.00
6565;BME280;3316;44.118;27.258;2023-04-20T05:14:51;100441.09;;;11.90;100.00
6565;BME280;3316;44.118;27.258;2023-04-20T05:17:16;100471.44;;;12.10;100.00
6565;BME280;3316;44.118;27.258;2023-04-20T05:19:42;100478.44;;;12.13;100.00
6565;BME280;3316;44.118;27.258;2023-04-20T05:22:07;100489.81;;;12.15;100.00
6565;BME280;3316;44.118;27.258;2023-04-20T05:24:33;100487.00;;;12.24;100.00
6565;BME280;3316;44.118;27.258;2023-04-20T05:26:58;100474.72;;;12.21;100.00
6565;BME280;3316;44.118;27.258;2023-04-20T05:29:24;100480.41;;;12.46;100.00
6565;BME280;3316;44.118;27.258;2023-04-20T05:31:50;100488.31;;;12.44;100.00
6565;BME280;3316;44.118;27.258;2023-04-20T05:34:15;100490.00;;;12.50;100.00
6565;BME280;3316;44.118;27.258;2023-04-20T05:36:41;100498.75;;;12.52;100.00
6565;BME280;3316;44.118;27.258;2023-04-20T05:39:06;100506.84;;;12.43;100.00
6565;BME280;3316;44.118;27.258;2023-04-20T05:41:32;100492.97;;;12.33;100.00
6565;BME280;3316;44.118;27.258;2023-04-20T05:43:57;100494.59;;;12.39;100.00
6565;BME280;3316;44.118;27.258;2023-04-20T05:46:23;100500.47;;;12.53;100.00
6565;BME280;3316;44.118;27.258;2023-04-20T05:48:48;100492.06;;;12.33;100.00
6565;BME280;3316;44.118;27.258;2023-04-20T05:51:14;100502.47;;;12.42;100.00
6565;BME280;3316;44.118;27.258;2023-04-20T05:53:40;100488.53;;;12.35;100.00
6565;BME280;3316;44.118;27.258;2023-04-20T05:56:06;100496.31;;;12.41;100.00
6565;BME280;3316;44.118;27.258;2023-04-20T05:58:33;100504.22;;;12.41;100.00
6565;BME280;3316;44.118;27.258;2023-04-20T06:00:59;100514.09;;;12.32;100.00
6565;BME280;3316;44.118;27.258;2023-04-20T06:03:26;100505.50;;;12.22;100.00
6565;BME280;3316;44.118;27.258;2023-04-20T06:05:52;100502.22;;;12.10;100.00
6565;BME280;3316;44.118;27.258;2023-04-20T06:08:17;100502.44;;;11.98;100.00
6565;BME280;3316;44.118;27.258;2023-04-20T06:10:43;100515.47;;;12.07;100.00
6565;BME280;3316;44.118;27.258;2023-04-20T06:13:09;100512.94;;;12.01;100.00
6565;BME280;3316;44.118;27.258;2023-04-20T06:15:34;100511.22;;;11.98;100.00
6565;BME280;3316;44.118;27.258;2023-04-20T06:18:00;100517.41;;;11.96;100.00
6565;BME280;3316;44.118;27.258;2023-04-20T06:20:26;100503.41;;;11.92;100.00
6565;BME280;3316;44.118;27.258;2023-04-20T06:22:51;100512.75;;;12.10;100.00
6565;BME280;3316;44.118;27.258;2023-04-20T06:25:17;100511.75;;;12.15;100.00
6565;BME280;3316;44.118;27.258;2023-04-20T06:27:42;100515.31;;;12.14;100.00
6565;BME280;3316;44.118;27.258;2023-04-20T06:30:08;100512.22;;;12.38;100.00
6565;BME280;3316;44.118;27.258;2023-04-20T06:32:34;100519.16;;;12.44;100.00
6565;BME280;3316;44.118;27.258;2023-04-20T06:35:00;100506.78;;;12.46;100.00
6565;BME280;3316;44.118;27.258;2023-04-20T06:37:25;100512.84;;;12.51;100.00
6565;BME280;3316;44.118;27.258;2023-04-20T06:39:53;100514.44;;;12.58;100.00
6565;BME280;3316;44.118;27.258;2023-04-20T06:42:19;100521.34;;;12.65;100.00
6565;BME280;3316;44.118;27.258;2023-04-20T06:44:44;100518.72;;;12.65;100.00
6565;BME280;3316;44.118;27.258;2023-04-20T06:47:10;100522.09;;;12.70;100.00
6565;BME280;3316;44.118;27.258;2023-04-20T06:49:36;100517.94;;;12.59;100.00
6565;BME280;3316;44.118;27.258;2023-04-20T06:52:04;100528.28;;;12.71;100.00
6565;BME280;3316;44.118;27.258;2023-04-20T06:54:29;100525.53;;;12.75;100.00
6565;BME280;3316;44.118;27.258;2023-04-20T06:56:55;100517.38;;;12.86;100.00
6565;BME280;3316;44.118;27.258;2023-04-20T06:59:20;100530.38;;;12.96;100.00
6565;BME280;3316;44.118;27.258;2023-04-20T07:01:46;100537.16;;;13.09;100.00
6565;BME280;3316;44.118;27.258;2023-04-20T07:04:11;100544.84;;;13.20;100.00
6565;BME280;3316;44.118;27.258;2023-04-20T07:06:36;100544.56;;;13.32;100.00
6565;BME280;3316;44.118;27.258;2023-04-20T07:09:02;100540.44;;;13.19;100.00
6565;BME280;3316;44.118;27.258;2023-04-20T07:11:29;100547.31;;;13.27;100.00
6565;BME280;3316;44.118;27.258;2023-04-20T07:13:54;100542.06;;;13.24;100.00
6565;BME280;3316;44.118;27.258;2023-04-20T07:16:20;100553.63;;;13.20;100.00
6565;BME280;3316;44.118;27.258;2023-04-20T07:18:46;100554.34;;;13.27;100.00
6565;BME280;3316;44.118;27.258;2023-04-20T07:21:11;100553.88;;;13.48;100.00
6565;BME280;3316;44.118;27.258;2023-04-20T07:23:36;100552.25;;;13.43;100.00
6565;BME280;3316;44.118;27.258;2023-04-20T07:26:02;100555.38;;;13.21;100.00
6565;BME280;3316;44.118;27.258;2023-04-20T07:28:27;100553.06;;;13.06;100.00
6565;BME280;3316;44.118;27.258;2023-04-20T07:30:53;100548.97;;;12.90;100.00
6565;BME280;3316;44.118;27.258;2023-04-20T07:33:18;100562.84;;;13.00;100.00
6565;BME280;3316;44.118;27.258;2023-04-20T07:35:45;100561.34;;;12.88;100.00
6565;BME280;3316;44.118;27.258;2023-04-20T07:38:10;100566.09;;;12.71;100.00
6565;BME280;3316;44.118;27.258;2023-04-20T07:40:36;100557.47;;;12.63;100.00
6565;BME280;3316;44.118;27.258;2023-04-20T07:43:01;100559.97;;;12.69;100.00
6565;BME280;3316;44.118;27.258;2023-04-20T07:45:27;100530.28;;;12.58;100.00
6565;BME280;3316;44.118;27.258;2023-04-20T07:47:52;100556.38;;;12.73;100.00
6565;BME280;3316;44.118;27.258;2023-04-20T07:50:19;100567.09;;;12.66;100.00
6565;BME280;3316;44.118;27.258;2023-04-20T07:52:44;100516.50;;;12.42;100.00
6565;BME280;3316;44.118;27.258;2023-04-20T07:55:10;100552.09;;;12.66;100.00
6565;BME280;3316;44.118;27.258;2023-04-20T07:57:37;100563.38;;;12.74;100.00
6565;BME280;3316;44.118;27.258;2023-04-20T08:00:03;100562.84;;;12.57;100.00
6565;BME280;3316;44.118;27.258;2023-04-20T08:02:32;100564.78;;;12.49;100.00
6565;BME280;3316;44.118;27.258;2023-04-20T08:04:58;100562.94;;;12.54;100.00
6565;BME280;3316;44.118;27.258;2023-04-20T08:07:26;100569.22;;;12.47;100.00
6565;BME280;3316;44.118;27.258;2023-04-20T08:09:51;100556.09;;;12.44;100.00
6565;BME280;3316;44.118;27.258;2023-04-20T08:12:17;100554.41;;;12.40;100.00
6565;BME280;3316;44.118;27.258;2023-04-20T08:14:42;100563.13;;;12.43;100.00
6565;BME280;3316;44.118;27.258;2023-04-20T08:17:08;100566.88;;;12.32;100.00
6565;BME280;3316;44.118;27.258;2023-04-20T08:19:33;100570.34;;;12.34;100.00
6565;BME280;3316;44.118;27.258;2023-04-20T08:21:59;100522.69;;;11.96;100.00
6565;BME280;3316;44.118;27.258;2023-04-20T08:24:24;100560.06;;;12.20;100.00
6565;BME280;3316;44.118;27.258;2023-04-20T08:26:50;100574.31;;;12.09;100.00
6565;BME280;3316;44.118;27.258;2023-04-20T08:29:16;100574.03;;;12.24;100.00
6565;BME280;3316;44.118;27.258;2023-04-20T08:31:41;100568.66;;;12.30;100.00
6565;BME280;3316;44.118;27.258;2023-04-20T08:34:06;100566.72;;;12.39;100.00
6565;BME280;3316;44.118;27.258;2023-04-20T08:36:32;100578.81;;;12.51;100.00
6565;BME280;3316;44.118;27.258;2023-04-20T08:39:08;100572.84;;;12.41;100.00
6565;BME280;3316;44.118;27.258;2023-04-20T08:41:35;100568.47;;;12.39;100.00
6565;BME280;3316;44.118;27.258;2023-04-20T08:44:00;100566.47;;;12.53;100.00
6565;BME280;3316;44.118;27.258;2023-04-20T08:46:26;100573.34;;;12.60;100.00
6565;BME280;3316;44.118;27.258;2023-04-20T08:48:52;100567.88;;;12.71;100.00
6565;BME280;3316;44.118;27.258;2023-04-20T08:51:20;100571.53;;;12.62;100.00
6565;BME280;3316;44.118;27.258;2023-04-20T08:53:45;100584.47;;;12.77;100.00
6565;BME280;3316;44.118;27.258;2023-04-20T08:56:11;100584.47;;;12.76;100.00
6565;BME280;3316;44.118;27.258;2023-04-20T08:58:36;100562.72;;;12.65;100.00
6565;BME280;3316;44.118;27.258;2023-04-20T09:01:09;100563.34;;;12.76;100.00
6565;BME280;3316;44.118;27.258;2023-04-20T09:03:40;100582.78;;;12.73;100.00
6565;BME280;3316;44.118;27.258;2023-04-20T09:06:16;100584.19;;;12.89;100.00
6565;BME280;3316;44.118;27.258;2023-04-20T09:08:43;100584.44;;;12.79;100.00
6565;BME280;3316;44.118;27.258;2023-04-20T09:11:25;100583.56;;;12.78;100.00
6565;BME280;3316;44.118;27.258;2023-04-20T09:13:58;100551.38;;;12.60;100.00
6565;BME280;3316;44.118;27.258;2023-04-20T09:16:24;100587.94;;;12.78;100.00
6565;BME280;3316;44.118;27.258;2023-04-20T09:18:54;100587.34;;;12.65;100.00
6565;BME280;3316;44.118;27.258;2023-04-20T09:21:21;100587.22;;;12.71;100.00
6565;BME280;3316;44.118;27.258;2023-04-20T09:24:03;100575.81;;;12.69;100.00
6565;BME280;3316;44.118;27.258;2023-04-20T09:26:32;100576.78;;;12.65;100.00
6565;BME280;3316;44.118;27.258;2023-04-20T09:28:59;100581.25;;;12.60;100.00
6565;BME280;3316;44.118;27.258;2023-04-20T09:31:25;100560.31;;;12.52;100.00
6565;BME280;3316;44.118;27.258;2023-04-20T09:34:02;100595.94;;;12.75;100.00
6565;BME280;3316;44.118;27.258;2023-04-20T09:36:53;100595.19;;;12.68;100.00
6565;BME280;3316;44.118;27.258;2023-04-20T09:39:21;100552.50;;;12.46;100.00
6565;BME280;3316;44.118;27.258;2023-04-20T09:41:48;100594.22;;;12.72;100.00
6565;BME280;3316;44.118;27.258;2023-04-20T09:44:15;100534.41;;;12.28;100.00
6565;BME280;3316;44.118;27.258;2023-04-20T09:46:42;100588.91;;;12.75;100.00
6565;BME280;3316;44.118;27.258;2023-04-20T09:49:10;100597.25;;;12.54;100.00
6565;BME280;3316;44.118;27.258;2023-04-20T09:51:38;100570.84;;;12.54;100.00
6565;BME280;3316;44.118;27.258;2023-04-20T09:54:06;100589.81;;;12.73;100.00
6565;BME280;3316;44.118;27.258;2023-04-20T09:56:33;100594.34;;;12.66;100.00
6565;BME280;3316;44.118;27.258;2023-04-20T09:59:00;100580.16;;;12.73;100.00
6565;BME280;3316;44.118;27.258;2023-04-20T10:01:29;100587.25;;;12.68;100.00
6565;BME280;3316;44.118;27.258;2023-04-20T10:03:57;100581.94;;;12.71;100.00
6565;BME280;3316;44.118;27.258;2023-04-20T10:06:25;100578.38;;;12.72;100.00
6565;BME280;3316;44.118;27.258;2023-04-20T10:08:52;100578.09;;;12.86;100.00
6565;BME280;3316;44.118;27.258;2023-04-20T10:13:53;100562.84;;;13.00;100.00
6565;BME280;3316;44.118;27.258;2023-04-20T10:16:20;100588.28;;;13.05;100.00
6565;BME280;3316;44.118;27.258;2023-04-20T10:18:59;100585.47;;;13.14;100.00
6565;BME280;3316;44.118;27.258;2023-04-20T10:21:27;100584.38;;;13.23;100.00
6565;BME280;3316;44.118;27.258;2023-04-20T10:23:53;100590.28;;;13.35;100.00
6565;BME280;3316;44.118;27.258;2023-04-20T10:26:19;100594.34;;;13.50;100.00
6565;BME280;3316;44.118;27.258;2023-04-20T10:28:45;100596.28;;;13.44;100.00
6565;BME280;3316;44.118;27.258;2023-04-20T10:31:11;100589.06;;;13.50;100.00
6565;BME280;3316;44.118;27.258;2023-04-20T10:33:51;100595.31;;;13.48;100.00
6565;BME280;3316;44.118;27.258;2023-04-20T10:36:26;100574.44;;;13.35;100.00
6565;BME280;3316;44.118;27.258;2023-04-20T10:38:52;100579.69;;;13.37;100.00
6565;BME280;3316;44.118;27.258;2023-04-20T10:41:19;100596.19;;;13.47;100.00
6565;BME280;3316;44.118;27.258;2023-04-20T10:43:45;100585.19;;;13.26;100.00
6565;BME280;3316;44.118;27.258;2023-04-20T10:46:23;100588.34;;;13.42;100.00
6565;BME280;3316;44.118;27.258;2023-04-20T10:48:53;100596.19;;;13.47;100.00
6565;BME280;3316;44.118;27.258;2023-04-20T10:51:19;100588.78;;;13.24;100.00
6565;BME280;3316;44.118;27.258;2023-04-20T10:53:44;100600.84;;;13.35;100.00
6565;BME280;3316;44.118;27.258;2023-04-20T10:56:10;100576.09;;;13.39;100.00
6565;BME280;3316;44.118;27.258;2023-04-20T10:58:35;100600.41;;;13.55;100.00
6565;BME280;3316;44.118;27.258;2023-04-20T11:01:04;100598.47;;;13.62;100.00
6565;BME280;3316;44.118;27.258;2023-04-20T11:03:31;100606.78;;;13.83;100.00
6565;BME280;3316;44.118;27.258;2023-04-20T11:05:59;100621.63;;;13.90;100.00
6565;BME280;3316;44.118;27.258;2023-04-20T11:08:39;100623.63;;;13.81;100.00
6565;BME280;3316;44.118;27.258;2023-04-20T11:11:17;100633.44;;;13.74;100.00
6565;BME280;3316;44.118;27.258;2023-04-20T11:13:43;100579.38;;;13.51;100.00
6565;BME280;3316;44.118;27.258;2023-04-20T11:16:13;100576.13;;;13.38;100.00
6565;BME280;3316;44.118;27.258;2023-04-20T11:18:52;100629.75;;;13.81;100.00
6565;BME280;3316;44.118;27.258;2023-04-20T11:21:18;100633.19;;;13.85;100.00
6565;BME280;3316;44.118;27.258;2023-04-20T11:23:44;100633.03;;;13.92;100.00
6565;BME280;3316;44.118;27.258;2023-04-20T11:26:09;100627.84;;;13.88;100.00
6565;BME280;3316;44.118;27.258;2023-04-20T11:28:36;100608.72;;;13.77;100.00
6565;BME280;3316;44.118;27.258;2023-04-20T11:31:02;100627.28;;;13.74;100.00
6565;BME280;3316;44.118;27.258;2023-04-20T11:33:29;100623.09;;;13.65;100.00
6565;BME280;3316;44.118;27.258;2023-04-20T11:35:56;100627.41;;;13.68;100.00
6565;BME280;3316;44.118;27.258;2023-04-20T11:38:30;100605.72;;;13.54;100.00
6565;BME280;3316;44.118;27.258;2023-04-20T11:40:56;100617.34;;;13.47;100.00
6565;BME280;3316;44.118;27.258;2023-04-20T11:43:23;100613.06;;;13.41;100.00
6565;BME280;3316;44.118;27.258;2023-04-20T11:45:48;100622.09;;;13.31;100.00
6565;BME280;3316;44.118;27.258;2023-04-20T11:48:13;100615.00;;;13.33;100.00
6565;BME280;3316;44.118;27.258;2023-04-20T11:50:39;100617.72;;;13.28;100.00
6565;BME280;3316;44.118;27.258;2023-04-20T11:53:05;100628.47;;;13.21;100.00
6565;BME280;3316;44.118;27.258;2023-04-20T11:55:31;100624.69;;;13.32;100.00
6565;BME280;3316;44.118;27.258;2023-04-20T11:57:56;100616.22;;;13.18;100.00
6565;BME280;3316;44.118;27.258;2023-04-20T12:00:22;100632.91;;;13.19;100.00
6565;BME280;3316;44.118;27.258;2023-04-20T12:02:47;100642.69;;;13.15;100.00
6565;BME280;3316;44.118;27.258;2023-04-20T12:05:13;100628.13;;;12.93;100.00
6565;BME280;3316;44.118;27.258;2023-04-20T12:07:38;100635.16;;;12.94;100.00
6565;BME280;3316;44.118;27.258;2023-04-20T12:10:05;100625.84;;;12.77;100.00
6565;BME280;3316;44.118;27.258;2023-04-20T12:12:31;100618.94;;;12.68;100.00
6565;BME280;3316;44.118;27.258;2023-04-20T12:14:56;100613.81;;;12.61;100.00
6565;BME280;3316;44.118;27.258;2023-04-20T12:17:22;100624.91;;;12.78;100.00
6565;BME280;3316;44.118;27.258;2023-04-20T12:19:47;100621.38;;;12.79;100.00
6565;BME280;3316;44.118;27.258;2023-04-20T12:22:12;100626.53;;;12.86;100.00
6565;BME280;3316;44.118;27.258;2023-04-20T12:24:38;100610.59;;;12.91;100.00
6565;BME280;3316;44.118;27.258;2023-04-20T12:27:03;100603.47;;;12.94;100.00
6565;BME280;3316;44.118;27.258;2023-04-20T12:29:30;100618.28;;;13.01;100.00
6565;BME280;3316;44.118;27.258;2023-04-20T12:31:57;100600.22;;;12.80;100.00
6565;BME280;3316;44.118;27.258;2023-04-20T12:34:23;100613.00;;;13.03;100.00
6565;BME280;3316;44.118;27.258;2023-04-20T12:36:48;100618.56;;;13.30;100.00
6565;BME280;3316;44.118;27.258;2023-04-20T12:39:14;100612.31;;;13.34;100.00
6565;BME280;3316;44.118;27.258;2023-04-20T12:41:40;100625.06;;;13.56;100.00
6565;BME280;3316;44.118;27.258;2023-04-20T12:44:06;100613.38;;;13.66;100.00
6565;BME280;3316;44.118;27.258;2023-04-20T12:46:31;100616.53;;;13.81;100.00
6565;BME280;3316;44.118;27.258;2023-04-20T12:48:57;100602.56;;;13.76;100.00